createdAt,value
2019-02-10T00:02:22.032Z,10.90
2019-02-10T00:06:35.059Z,10.90
2019-02-10T00:10:47.566Z,10.90
2019-02-10T00:14:59.968Z,11.00
2019-02-10T00:19:12.761Z,11.00
2019-02-10T00:23:25.216Z,11.00
2019-02-10T00:27:37.621Z,11.00
2019-02-10T00:31:50.974Z,11.00
2019-02-10T00:36:03.273Z,11.00
2019-02-10T00:40:16.131Z,11.00
2019-02-10T00:44:28.853Z,11.00
2019-02-10T00:48:41.040Z,11.00
2019-02-10T00:52:53.922Z,10.90
2019-02-10T00:57:06.571Z,10.90
2019-02-10T01:01:19.264Z,10.80
2019-02-10T01:05:31.825Z,10.80
2019-02-10T01:09:44.307Z,10.80
2019-02-10T01:13:56.640Z,10.80
2019-02-10T01:18:09.337Z,10.80
2019-02-10T01:22:21.786Z,10.70
2019-02-10T01:26:34.200Z,10.80
2019-02-10T01:30:47.187Z,10.70
2019-02-10T01:34:59.544Z,10.70
2019-02-10T01:39:25.551Z,10.60
2019-02-10T01:43:38.372Z,10.60
2019-02-10T01:47:51.035Z,10.60
2019-02-10T01:52:03.917Z,10.60
2019-02-10T01:56:16.405Z,10.60
2019-02-10T02:00:28.779Z,10.60
2019-02-10T02:04:41.672Z,10.50
2019-02-10T02:08:54.194Z,10.50
2019-02-10T02:13:06.599Z,10.40
2019-02-10T02:17:19.329Z,10.40
2019-02-10T02:21:31.690Z,10.40
2019-02-10T02:25:44.098Z,10.30
2019-02-10T02:29:57.402Z,10.30
2019-02-10T02:34:09.861Z,10.30
2019-02-10T02:38:22.264Z,10.30
2019-02-10T02:42:35.020Z,10.30
2019-02-10T02:46:47.677Z,10.20
2019-02-10T02:51:00.907Z,10.20
2019-02-10T02:55:13.484Z,10.10
2019-02-10T02:59:27.483Z,10.10
2019-02-10T03:03:40.045Z,10.10
2019-02-10T03:07:52.436Z,10.10
2019-02-10T03:12:05.798Z,10.10
2019-02-10T03:16:18.273Z,10.10
2019-02-10T03:20:31.029Z,10.10
2019-02-10T03:24:43.459Z,10.10
2019-02-10T03:28:55.862Z,10.10
2019-02-10T03:33:08.654Z,10.10
2019-02-10T03:37:26.998Z,10.10
2019-02-10T03:41:35.528Z,10.10
2019-02-10T03:45:48.154Z,10.10
2019-02-10T03:50:01.279Z,10.10
2019-02-10T03:54:13.747Z,10.10
2019-02-10T03:58:26.146Z,10.10
2019-02-10T04:02:38.929Z,10.10
2019-02-10T04:06:51.491Z,10.20
2019-02-10T04:11:05.041Z,10.20
2019-02-10T04:15:17.444Z,10.20
2019-02-10T04:19:30.301Z,10.20
2019-02-10T04:23:42.791Z,10.20
2019-02-10T04:27:55.205Z,9.90
2019-02-10T04:32:08.094Z,9.50
2019-02-10T04:36:20.551Z,9.40
2019-02-10T04:40:33.993Z,9.20
2019-02-10T04:44:46.595Z,9.20
2019-02-10T04:48:59.584Z,9.20
2019-02-10T04:53:12.161Z,9.20
2019-02-10T04:57:24.571Z,9.30
2019-02-10T05:01:37.913Z,9.30
2019-02-10T05:05:50.795Z,9.30
2019-02-10T05:10:03.256Z,9.20
2019-02-10T05:14:15.639Z,9.20
2019-02-10T05:18:27.971Z,9.10
2019-02-10T05:22:41.389Z,9.10
2019-02-10T05:26:54.213Z,9.10
2019-02-10T05:31:06.673Z,9.10
2019-02-10T05:35:19.072Z,9.10
2019-02-10T05:39:32.001Z,9.20
2019-02-10T05:43:44.525Z,9.10
2019-02-10T05:47:57.031Z,9.10
2019-02-10T05:52:10.037Z,9.10
2019-02-10T05:56:22.381Z,9.20
2019-02-10T06:00:37.184Z,9.20
2019-02-10T06:04:49.572Z,9.20
2019-02-10T06:09:02.568Z,9.20
2019-02-10T06:13:15.125Z,9.10
2019-02-10T06:17:27.530Z,9.10
2019-02-10T06:21:40.771Z,9.10
2019-02-10T06:25:53.145Z,9.10
2019-02-10T06:30:06.078Z,9.00
2019-02-10T06:34:18.541Z,8.90
2019-02-10T06:38:30.836Z,8.90
2019-02-10T06:42:44.280Z,8.90
2019-02-10T06:46:56.799Z,8.80
2019-02-10T06:51:09.749Z,8.80
2019-02-10T06:55:22.575Z,8.80
2019-02-10T06:59:45.119Z,8.90
2019-02-10T07:04:07.034Z,8.90
2019-02-10T07:08:19.663Z,8.90
2019-02-10T07:12:54.980Z,9.00
2019-02-10T07:17:23.431Z,8.80
2019-02-10T07:21:38.752Z,8.50
2019-02-10T07:25:58.536Z,8.30
2019-02-10T07:30:39.632Z,8.10
2019-02-10T07:35:39.555Z,8.10
2019-02-10T07:40:39.245Z,8.00
2019-02-10T07:45:03.132Z,8.00
2019-02-10T07:49:42.100Z,8.00
2019-02-10T07:54:07.245Z,8.10
2019-02-10T07:58:48.989Z,8.20
2019-02-10T08:03:22.596Z,8.20
2019-02-10T08:08:06.755Z,8.30
2019-02-10T08:13:05.188Z,8.30
2019-02-10T08:17:45.004Z,8.40
2019-02-10T08:22:32.341Z,8.50
2019-02-10T08:27:19.244Z,8.60
2019-02-10T08:32:02.612Z,8.60
2019-02-10T08:36:39.297Z,8.30
2019-02-10T08:41:23.488Z,8.20
2019-02-10T08:46:16.724Z,8.10
2019-02-10T08:51:25.869Z,8.20
2019-02-10T08:55:38.332Z,8.30
2019-02-10T08:59:51.007Z,8.40
2019-02-10T09:04:03.505Z,8.50
2019-02-10T09:08:15.914Z,8.70
2019-02-10T09:12:28.816Z,8.90
2019-02-10T09:16:41.356Z,9.10
2019-02-10T09:20:53.671Z,9.30
2019-02-10T09:25:06.457Z,9.20
2019-02-10T09:29:20.476Z,9.00
2019-02-10T09:33:32.985Z,8.70
2019-02-10T09:37:45.287Z,8.60
2019-02-10T09:41:58.172Z,8.70
2019-02-10T09:46:10.630Z,8.90
2019-02-10T09:50:23.657Z,9.10
2019-02-10T09:54:36.548Z,9.30
2019-02-10T09:58:48.895Z,9.40
2019-02-10T10:03:01.859Z,9.60
2019-02-10T10:07:14.448Z,9.90
2019-02-10T10:11:26.752Z,9.90
2019-02-10T10:15:39.545Z,9.50
2019-02-10T10:19:54.916Z,9.50
2019-02-10T10:24:07.491Z,9.50
2019-02-10T10:28:19.798Z,9.30
2019-02-10T10:32:32.772Z,9.10
2019-02-10T10:36:45.152Z,9.40
2019-02-10T10:40:57.487Z,9.70
2019-02-10T10:45:10.337Z,9.90
2019-02-10T10:49:23.248Z,10.20
2019-02-10T10:53:35.550Z,10.30
2019-02-10T10:57:48.307Z,9.80
2019-02-10T11:02:00.765Z,9.40
2019-02-10T11:06:13.240Z,9.30
2019-02-10T11:10:26.076Z,9.20
2019-02-10T11:14:38.524Z,9.50
2019-02-10T11:18:50.841Z,9.90
2019-02-10T11:23:03.726Z,10.10
2019-02-10T11:27:16.288Z,10.30
2019-02-10T11:31:28.596Z,10.60
2019-02-10T11:35:41.471Z,10.60
2019-02-10T11:39:55.125Z,10.80
2019-02-10T11:44:07.594Z,11.00
2019-02-10T11:48:19.649Z,10.80
2019-02-10T11:52:32.164Z,10.30
2019-02-10T11:56:44.936Z,10.40
2019-02-10T12:00:57.347Z,10.70
2019-02-10T12:05:10.747Z,10.70
2019-02-10T12:09:23.055Z,10.60
2019-02-10T12:13:35.787Z,10.60
2019-02-10T12:17:48.240Z,10.80
2019-02-10T12:22:00.660Z,10.90
2019-02-10T12:26:13.545Z,10.90
2019-02-10T12:30:26.000Z,10.80
2019-02-10T12:34:38.308Z,10.70
2019-02-10T12:38:51.292Z,10.80
2019-02-10T12:43:03.706Z,10.90
2019-02-10T12:47:16.064Z,10.70
2019-02-10T12:51:29.581Z,10.60
2019-02-10T12:55:42.569Z,10.30
2019-02-10T12:59:55.162Z,10.40
2019-02-10T13:04:07.573Z,10.30
2019-02-10T13:08:19.998Z,10.30
2019-02-10T13:12:32.845Z,10.40
2019-02-10T13:16:45.242Z,10.70
2019-02-10T13:20:58.117Z,10.90
2019-02-10T13:25:10.890Z,10.80
2019-02-10T13:29:23.870Z,10.60
2019-02-10T13:33:36.432Z,10.50
2019-02-10T13:37:48.737Z,10.50
2019-02-10T13:42:02.760Z,10.50
2019-02-10T13:46:15.380Z,10.70
2019-02-10T13:50:28.085Z,10.90
2019-02-10T13:54:40.993Z,11.10
2019-02-10T13:58:53.691Z,11.00
2019-02-10T14:03:05.997Z,11.10
2019-02-10T14:07:18.784Z,11.20
2019-02-10T14:11:32.427Z,11.50
2019-02-10T14:15:44.851Z,11.60
2019-02-10T14:19:57.573Z,11.50
2019-02-10T14:24:10.130Z,11.50
2019-02-10T14:28:22.440Z,11.60
2019-02-10T14:32:35.980Z,11.60
2019-02-10T14:36:48.290Z,11.50
2019-02-10T14:41:01.084Z,11.50
2019-02-10T14:45:13.771Z,11.30
2019-02-10T14:49:26.153Z,11.40
2019-02-10T14:53:39.213Z,11.40
2019-02-10T14:57:51.667Z,11.10
2019-02-10T15:02:04.389Z,10.90
2019-02-10T15:06:16.849Z,10.80
2019-02-10T15:10:29.269Z,10.80
2019-02-10T15:14:41.664Z,10.80
2019-02-10T15:18:54.534Z,10.90
2019-02-10T15:23:07.021Z,10.90
2019-02-10T15:27:19.447Z,11.00
2019-02-10T15:31:32.872Z,11.00
2019-02-10T15:35:45.285Z,10.90
2019-02-10T15:39:58.077Z,10.90
2019-02-10T15:44:10.529Z,10.80
2019-02-10T15:48:23.004Z,10.50
2019-02-10T15:52:35.835Z,10.20
2019-02-10T15:56:48.257Z,10.30
2019-02-10T16:01:01.733Z,10.40
2019-02-10T16:05:14.035Z,10.40
2019-02-10T16:09:27.037Z,10.00
2019-02-10T16:13:39.483Z,9.70
2019-02-10T16:17:51.794Z,9.40
2019-02-10T16:22:04.639Z,9.30
2019-02-10T16:26:17.241Z,9.30
2019-02-10T16:30:29.659Z,9.40
2019-02-10T16:34:42.537Z,9.40
2019-02-10T16:38:54.996Z,9.30
2019-02-10T16:43:07.415Z,9.20
2019-02-10T16:47:19.723Z,9.30
2019-02-10T16:51:32.105Z,9.30
2019-02-10T16:55:44.949Z,9.30
2019-02-10T16:59:58.215Z,9.30
2019-02-10T17:04:10.720Z,9.20
2019-02-10T17:08:23.127Z,9.00
2019-02-10T17:12:35.932Z,8.80
2019-02-10T17:16:48.277Z,8.80
2019-02-10T17:21:00.797Z,8.80
2019-02-10T17:25:14.464Z,8.90
2019-02-10T17:29:28.720Z,9.00
2019-02-10T17:33:41.422Z,9.00
2019-02-10T17:37:54.067Z,9.10
2019-02-10T17:42:06.927Z,9.10
2019-02-10T17:46:19.280Z,9.00
2019-02-10T17:50:31.702Z,8.70
2019-02-10T17:54:44.242Z,8.50
2019-02-10T17:58:57.044Z,8.30
2019-02-10T18:03:09.556Z,8.20
2019-02-10T18:07:21.884Z,8.20
2019-02-10T18:11:34.861Z,8.30
2019-02-10T18:16:18.024Z,8.30
2019-02-10T18:20:47.643Z,8.30
2019-02-10T18:25:28.424Z,8.20
2019-02-10T18:30:14.631Z,8.30
2019-02-10T18:34:58.283Z,8.30
2019-02-10T18:39:28.308Z,8.10
2019-02-10T18:44:02.432Z,8.10
2019-02-10T18:48:21.437Z,8.10
2019-02-10T18:52:51.159Z,8.00
2019-02-10T18:57:28.421Z,8.00
2019-02-10T19:02:18.520Z,7.90
2019-02-10T19:06:51.722Z,8.00
2019-02-10T19:11:21.652Z,8.00
2019-02-10T19:16:05.297Z,8.00
2019-02-10T19:20:29.941Z,8.10
2019-02-10T19:25:13.648Z,8.00
2019-02-10T19:29:59.956Z,8.00
2019-02-10T19:34:23.267Z,8.00
2019-02-10T19:38:57.352Z,8.10
2019-02-10T19:43:34.588Z,8.00
2019-02-10T19:48:03.795Z,7.90
2019-02-10T19:52:25.423Z,7.90
2019-02-10T19:56:57.056Z,8.00
2019-02-10T20:01:28.210Z,8.10
2019-02-10T20:05:59.672Z,8.00
2019-02-10T20:10:29.495Z,7.90
2019-02-10T20:14:59.559Z,7.70
2019-02-10T20:19:18.396Z,7.50
2019-02-10T20:23:53.740Z,7.60
2019-02-10T20:28:23.874Z,7.50
2019-02-10T20:32:58.035Z,7.50
2019-02-10T20:37:26.799Z,7.60
2019-02-10T20:42:00.922Z,7.60
2019-02-10T20:46:34.843Z,7.60
2019-02-10T20:50:57.528Z,7.60
2019-02-10T20:55:31.726Z,7.70
2019-02-10T20:59:55.803Z,7.70
2019-02-10T21:04:45.605Z,7.70
2019-02-10T21:09:15.432Z,7.60
2019-02-10T21:13:48.159Z,7.60
2019-02-10T21:18:19.275Z,7.70
2019-02-10T21:22:51.289Z,7.60
2019-02-10T21:27:22.814Z,7.60
2019-02-10T21:32:01.854Z,7.60
2019-02-10T21:36:33.314Z,7.50
2019-02-10T21:40:56.011Z,7.50
2019-02-10T21:45:30.197Z,7.50
2019-02-10T21:49:43.095Z,7.50
2019-02-10T21:53:55.659Z,7.60
2019-02-10T21:58:08.133Z,7.60
2019-02-10T22:02:20.936Z,7.70
2019-02-10T22:06:33.313Z,7.80
2019-02-10T22:10:45.725Z,7.80
2019-02-10T22:14:58.611Z,7.80
2019-02-10T22:19:11.077Z,7.80
2019-02-10T22:23:23.480Z,7.80
2019-02-10T22:27:35.795Z,7.80
2019-02-10T22:31:49.245Z,7.90
2019-02-10T22:36:01.720Z,7.90
2019-02-10T22:40:14.642Z,7.90
2019-02-10T22:44:27.002Z,8.00
2019-02-10T22:48:39.411Z,8.00
2019-02-10T22:52:53.324Z,8.20
2019-02-10T22:57:05.989Z,8.20
2019-02-10T23:01:18.464Z,8.30
2019-02-10T23:05:31.366Z,8.30
2019-02-10T23:09:43.842Z,8.20
2019-02-10T23:13:56.160Z,8.20
2019-02-10T23:18:08.481Z,8.20
2019-02-10T23:22:21.253Z,8.20
2019-02-10T23:26:33.720Z,8.20
2019-02-10T23:30:46.623Z,8.30
2019-02-10T23:34:59.168Z,8.20
2019-02-10T23:39:11.544Z,8.20
2019-02-10T23:43:24.357Z,8.10
2019-02-10T23:47:36.818Z,8.00
2019-02-10T23:51:50.568Z,7.80
2019-02-10T23:56:02.932Z,7.80
